Time;durP1;ratioP1;P1;durP2;ratioP2;P2;SDS_P1;SDS_P2;PMS_P1;PMS_P2;Temp;Humidity;BMP_temperature;BMP_pressure;BME280_temperature;BME280_humidity;BME280_pressure;Samples;Min_cycle;Max_cycle;Signal;HPM_P1;HPM_P2
2023/09/02 00:02:11;;;;;;;;;;;22.60;53.00;;;;;;4996508;28;87346;-53
2023/09/02 00:04:37;;;;;;;;;;;22.60;53.00;;;;;;4996800;28;87707;-53
2023/09/02 00:07:02;;;;;;;;;;;22.60;53.00;;;;;;4993289;28;87131;-49
2023/09/02 00:09:28;;;;;;;;;;;22.60;52.90;;;;;;4996713;28;88380;-49
2023/09/02 00:11:53;;;;;;;;;;;22.60;53.00;;;;;;4994032;28;88749;-52
2023/09/02 00:14:19;;;;;;;;;;;22.60;53.00;;;;;;4996181;28;87105;-51
2023/09/02 00:16:44;;;;;;;;;;;22.60;53.00;;;;;;4993166;28;87980;-53
2023/09/02 00:19:10;;;;;;;;;;;22.60;53.10;;;;;;4995367;28;87714;-52
2023/09/02 00:21:35;;;;;;;;;;;22.50;53.10;;;;;;4996947;28;87420;-54
2023/09/02 00:24:02;;;;;;;;;;;22.50;53.00;;;;;;4993411;28;87616;-53
2023/09/02 00:26:29;;;;;;;;;;;22.50;52.90;;;;;;4996565;28;89918;-52
2023/09/02 00:28:54;;;;;;;;;;;22.50;53.10;;;;;;4993957;28;87777;-48
2023/09/02 00:31:20;;;;;;;;;;;22.50;53.10;;;;;;4995697;28;88378;-52
2023/09/02 00:33:45;;;;;;;;;;;22.50;53.00;;;;;;4994564;28;86363;-51
2023/09/02 00:36:11;;;;;;;;;;;22.50;53.10;;;;;;4994041;28;87147;-52
2023/09/02 00:38:36;;;;;;;;;;;22.50;53.00;;;;;;4992091;28;88340;-50
2023/09/02 00:41:03;;;;;;;;;;;22.50;53.70;;;;;;4994614;28;88126;-50
2023/09/02 00:43:29;;;;;;;;;;;22.50;53.10;;;;;;4994686;28;88512;-53
2023/09/02 00:45:54;;;;;;;;;;;22.50;53.20;;;;;;4992580;28;88316;-51
2023/09/02 00:48:20;;;;;;;;;;;22.40;53.20;;;;;;4996871;28;87186;-55
2023/09/02 00:50:46;;;;;;;;;;;22.40;53.10;;;;;;4994804;28;88305;-53
2023/09/02 00:53:11;;;;;;;;;;;22.40;53.10;;;;;;4993825;28;87185;-50
2023/09/02 00:55:39;;;;;;;;;;;22.40;53.10;;;;;;4994339;28;87679;-52
2023/09/02 00:58:05;;;;;;;;;;;22.40;53.10;;;;;;4994474;28;87482;-50
2023/09/02 01:00:30;;;;;;;;;;;22.40;53.20;;;;;;4994502;28;87116;-49
2023/09/02 01:02:57;;;;;;;;;;;22.40;53.20;;;;;;4994465;28;87706;-53
2023/09/02 01:05:23;;;;;;;;;;;22.40;53.20;;;;;;4991972;28;89121;-50
2023/09/02 01:07:50;;;;;;;;;;;22.40;53.20;;;;;;4992954;28;87947;-49
2023/09/02 01:10:17;;;;;;;;;;;22.40;53.20;;;;;;4996206;28;88785;-54
2023/09/02 01:12:43;;;;;;;;;;;22.30;53.10;;;;;;4995189;28;87195;-55
2023/09/02 01:15:08;;;;;;;;;;;22.40;53.20;;;;;;4992777;28;89213;-51
2023/09/02 01:17:34;;;;;;;;;;;22.40;53.20;;;;;;4992884;28;87992;-51
2023/09/02 01:20:00;;;;;;;;;;;22.30;53.20;;;;;;4995343;28;87190;-53
2023/09/02 01:22:37;;;;;;;;;;;22.30;53.20;;;;;;4995555;28;89287;-50
2023/09/02 01:25:11;;;;;;;;;;;22.30;53.20;;;;;;4992218;28;88176;-50
2023/09/02 01:27:52;;;;;;;;;;;22.30;53.20;;;;;;4992697;28;87206;-49
2023/09/02 01:30:21;;;;;;;;;;;22.30;53.20;;;;;;4993065;28;88763;-52
2023/09/02 01:32:49;;;;;;;;;;;22.30;53.20;;;;;;4994888;28;88250;-52
2023/09/02 01:35:19;;;;;;;;;;;22.20;53.10;;;;;;4993162;28;89110;-53
2023/09/02 01:37:48;;;;;;;;;;;22.20;53.10;;;;;;4994585;28;88668;-52
2023/09/02 01:40:21;;;;;;;;;;;22.20;53.10;;;;;;4993631;28;87131;-51
2023/09/02 01:42:48;;;;;;;;;;;22.20;53.10;;;;;;4992173;28;88833;-53
2023/09/02 01:45:13;;;;;;;;;;;22.20;53.80;;;;;;4993691;28;88343;-51
2023/09/02 01:47:39;;;;;;;;;;;22.20;53.20;;;;;;4992894;28;86383;-53
2023/09/02 01:50:07;;;;;;;;;;;22.20;53.10;;;;;;4992274;28;86969;-55
2023/09/02 01:52:33;;;;;;;;;;;22.20;53.10;;;;;;4993982;28;90405;-53
2023/09/02 01:54:58;;;;;;;;;;;22.10;53.10;;;;;;4994257;28;88172;-51
2023/09/02 01:57:24;;;;;;;;;;;22.20;53.10;;;;;;4994178;28;88226;-47
2023/09/02 01:59:50;;;;;;;;;;;22.20;53.10;;;;;;4992818;28;87152;-53
2023/09/02 02:02:16;;;;;;;;;;;22.10;53.10;;;;;;4992078;28;87610;-51
2023/09/02 02:04:43;;;;;;;;;;;22.20;53.10;;;;;;4993503;28;89497;-51
2023/09/02 02:07:11;;;;;;;;;;;22.10;53.10;;;;;;4994475;28;87119;-51
2023/09/02 02:09:46;;;;;;;;;;;22.10;53.10;;;;;;4994334;28;88285;-53
2023/09/02 02:12:11;;;;;;;;;;;22.10;53.10;;;;;;4994379;28;87103;-49
2023/09/02 02:14:37;;;;;;;;;;;22.10;53.10;;;;;;4996908;28;87249;-51
2023/09/02 02:17:03;;;;;;;;;;;22.10;53.10;;;;;;4990461;28;88577;-53
2023/09/02 02:19:29;;;;;;;;;;;22.10;53.10;;;;;;4993495;28;88199;-51
2023/09/02 02:21:54;;;;;;;;;;;22.00;53.10;;;;;;4989691;28;88968;-52
2023/09/02 02:24:20;;;;;;;;;;;22.00;53.10;;;;;;4990876;28;88183;-52
2023/09/02 02:26:45;;;;;;;;;;;22.00;53.10;;;;;;4994369;28;87091;-53
2023/09/02 02:29:11;;;;;;;;;;;22.00;53.20;;;;;;4991738;28;88211;-51
2023/09/02 02:31:36;;;;;;;;;;;22.00;53.20;;;;;;4991972;28;88315;-52
2023/09/02 02:34:02;;;;;;;;;;;22.00;53.20;;;;;;4994054;28;87348;-53
2023/09/02 02:36:28;;;;;;;;;;;22.00;53.20;;;;;;4994088;28;89077;-51
2023/09/02 02:38:53;;;;;;;;;;;21.90;53.20;;;;;;4991902;28;87137;-52
2023/09/02 02:41:19;;;;;;;;;;;21.90;53.20;;;;;;4991365;28;87773;-52
2023/09/02 02:43:45;;;;;;;;;;;21.90;53.20;;;;;;4990646;28;89094;-49
2023/09/02 02:46:10;;;;;;;;;;;21.90;53.20;;;;;;4992849;28;87165;-49
2023/09/02 02:48:36;;;;;;;;;;;21.90;53.20;;;;;;4991086;28;87097;-51
2023/09/02 02:51:01;;;;;;;;;;;21.90;53.20;;;;;;4991338;28;88255;-51
2023/09/02 02:53:27;;;;;;;;;;;21.90;53.10;;;;;;4990905;28;87109;-50
2023/09/02 02:55:52;;;;;;;;;;;21.90;53.20;;;;;;4993934;28;87446;-52
2023/09/02 02:58:18;;;;;;;;;;;21.90;53.30;;;;;;4993930;28;88467;-53
2023/09/02 03:00:44;;;;;;;;;;;21.90;53.20;;;;;;4993980;28;87664;-49
2023/09/02 03:03:10;;;;;;;;;;;21.80;53.40;;;;;;4990754;28;87424;-49
2023/09/02 03:05:37;;;;;;;;;;;21.80;53.20;;;;;;4993349;28;87456;-49
2023/09/02 03:08:03;;;;;;;;;;;21.80;53.30;;;;;;4993025;28;89527;-53
2023/09/02 03:10:28;;;;;;;;;;;21.80;53.20;;;;;;4989883;28;88210;-50
2023/09/02 03:12:54;;;;;;;;;;;21.80;53.30;;;;;;4989019;28;87155;-50
2023/09/02 03:15:19;;;;;;;;;;;21.80;53.20;;;;;;4992742;28;87528;-51
2023/09/02 03:17:45;;;;;;;;;;;21.80;53.30;;;;;;4990243;28;88346;-50
2023/09/02 03:20:10;;;;;;;;;;;21.70;53.30;;;;;;4996184;28;87126;-53
2023/09/02 03:22:39;;;;;;;;;;;21.70;53.20;;;;;;4992228;28;88333;-48
2023/09/02 03:25:05;;;;;;;;;;;21.70;53.20;;;;;;4990630;28;86627;-49
2023/09/02 03:27:31;;;;;;;;;;;21.70;53.30;;;;;;4992686;28;87155;-50
2023/09/02 03:29:57;;;;;;;;;;;21.70;53.30;;;;;;4992530;28;88011;-50
2023/09/02 03:32:26;;;;;;;;;;;21.70;53.30;;;;;;4991971;28;88222;-52
2023/09/02 03:34:51;;;;;;;;;;;21.60;53.30;;;;;;4991894;28;89881;-50
2023/09/02 03:37:17;;;;;;;;;;;21.60;53.30;;;;;;4990492;28;88387;-51
2023/09/02 03:39:42;;;;;;;;;;;21.60;53.30;;;;;;4992027;28;87261;-53
2023/09/02 03:42:08;;;;;;;;;;;21.60;53.30;;;;;;4994894;28;87643;-54
2023/09/02 03:44:33;;;;;;;;;;;21.60;53.30;;;;;;4990756;28;87199;-51
2023/09/02 03:46:59;;;;;;;;;;;21.60;53.30;;;;;;4993516;28;87835;-51
2023/09/02 03:49:24;;;;;;;;;;;21.60;53.40;;;;;;4991685;28;88876;-51
2023/09/02 03:51:50;;;;;;;;;;;21.60;53.30;;;;;;4992165;28;88141;-54
2023/09/02 03:54:15;;;;;;;;;;;21.50;53.30;;;;;;4990876;28;88078;-54
2023/09/02 03:56:41;;;;;;;;;;;21.50;53.30;;;;;;4988223;28;89857;-51
2023/09/02 03:59:07;;;;;;;;;;;21.50;53.30;;;;;;4992751;28;87049;-48
2023/09/02 04:01:32;;;;;;;;;;;21.50;53.30;;;;;;4991694;28;87897;-52
2023/09/02 04:03:59;;;;;;;;;;;21.50;53.30;;;;;;4990907;28;88276;-49
2023/09/02 04:06:24;;;;;;;;;;;21.50;53.40;;;;;;4986371;28;87617;-54
2023/09/02 04:08:50;;;;;;;;;;;21.50;53.30;;;;;;4992411;28;89673;-55
2023/09/02 04:11:16;;;;;;;;;;;21.50;53.20;;;;;;4990134;28;87586;-50
2023/09/02 04:13:42;;;;;;;;;;;21.50;53.30;;;;;;4989861;28;87633;-52
2023/09/02 04:16:10;;;;;;;;;;;21.40;53.30;;;;;;4988631;28;88343;-53
2023/09/02 04:18:35;;;;;;;;;;;21.50;53.20;;;;;;4994218;28;88758;-50
2023/09/02 04:21:02;;;;;;;;;;;21.40;53.30;;;;;;4986782;28;88872;-50
2023/09/02 04:23:28;;;;;;;;;;;21.50;53.30;;;;;;5000265;28;91394;-54
2023/09/02 04:25:53;;;;;;;;;;;21.40;53.20;;;;;;4992033;28;87129;-50
2023/09/02 04:28:19;;;;;;;;;;;21.40;53.40;;;;;;4995804;28;87843;-54
2023/09/02 04:30:46;;;;;;;;;;;21.40;53.30;;;;;;4993176;28;87205;-50
2023/09/02 04:33:12;;;;;;;;;;;21.40;53.40;;;;;;4997222;28;87837;-52
2023/09/02 04:35:38;;;;;;;;;;;21.40;53.50;;;;;;4992840;28;90326;-52
2023/09/02 04:38:05;;;;;;;;;;;21.30;53.30;;;;;;4998539;28;86677;-52
2023/09/02 04:40:31;;;;;;;;;;;21.30;53.30;;;;;;4993978;28;88375;-50
2023/09/02 04:42:56;;;;;;;;;;;21.40;53.40;;;;;;4989246;28;89825;-51
2023/09/02 04:45:22;;;;;;;;;;;21.30;53.40;;;;;;4997437;28;88080;-51
2023/09/02 04:47:48;;;;;;;;;;;21.30;53.40;;;;;;4995766;28;88380;-51
2023/09/02 04:50:14;;;;;;;;;;;21.30;53.40;;;;;;4987456;28;87770;-49
2023/09/02 04:52:39;;;;;;;;;;;21.30;53.40;;;;;;4993381;28;87982;-47
2023/09/02 04:55:05;;;;;;;;;;;21.30;53.50;;;;;;4992697;28;87301;-50
2023/09/02 04:57:33;;;;;;;;;;;21.30;53.40;;;;;;4995745;28;87161;-52
2023/09/02 04:59:59;;;;;;;;;;;21.30;53.30;;;;;;4996523;28;87410;-50
2023/09/02 05:02:24;;;;;;;;;;;21.30;53.30;;;;;;4992628;28;88236;-53
2023/09/02 05:04:53;;;;;;;;;;;21.20;53.40;;;;;;4994679;28;87057;-48
2023/09/02 05:07:18;;;;;;;;;;;21.20;53.40;;;;;;4999760;28;87660;-52
2023/09/02 05:09:44;;;;;;;;;;;21.20;53.30;;;;;;4992365;28;88571;-49
2023/09/02 05:12:09;;;;;;;;;;;21.20;53.40;;;;;;4990018;28;88488;-50
2023/09/02 05:14:36;;;;;;;;;;;21.20;53.40;;;;;;4994817;28;88723;-53
2023/09/02 05:17:01;;;;;;;;;;;21.20;53.30;;;;;;4991507;28;87346;-50
2023/09/02 05:19:27;;;;;;;;;;;21.20;53.30;;;;;;4991643;28;88667;-52
2023/09/02 05:21:52;;;;;;;;;;;21.20;53.50;;;;;;4991315;28;87896;-52
2023/09/02 05:24:18;;;;;;;;;;;21.20;53.40;;;;;;4994624;28;87186;-48
2023/09/02 05:26:43;;;;;;;;;;;21.20;53.40;;;;;;4995610;28;87611;-52
2023/09/02 05:29:09;;;;;;;;;;;21.20;53.40;;;;;;4998242;28;88697;-50
2023/09/02 05:31:34;;;;;;;;;;;21.20;53.40;;;;;;4991394;28;87792;-52
2023/09/02 05:34:00;;;;;;;;;;;21.20;53.40;;;;;;4993718;28;89071;-50
2023/09/02 05:36:26;;;;;;;;;;;21.20;53.50;;;;;;4993077;28;87256;-52
2023/09/02 05:38:51;;;;;;;;;;;21.20;53.40;;;;;;4987155;28;87881;-48
2023/09/02 05:41:17;;;;;;;;;;;21.20;53.40;;;;;;4990514;28;88480;-50
2023/09/02 05:43:42;;;;;;;;;;;21.20;53.30;;;;;;4995796;28;87241;-50
2023/09/02 05:46:08;;;;;;;;;;;21.20;53.40;;;;;;4989621;28;87740;-51
2023/09/02 05:48:34;;;;;;;;;;;21.20;53.40;;;;;;4989189;28;88723;-52
2023/09/02 05:50:59;;;;;;;;;;;21.20;53.40;;;;;;4998300;28;86243;-51
2023/09/02 05:53:25;;;;;;;;;;;21.20;53.40;;;;;;4992968;28;87737;-49
2023/09/02 05:55:54;;;;;;;;;;;21.20;53.40;;;;;;4990758;28;87666;-51
2023/09/02 05:58:20;;;;;;;;;;;21.20;53.50;;;;;;4990084;28;89279;-51
2023/09/02 06:00:45;;;;;;;;;;;21.20;53.50;;;;;;4993354;28;88700;-55
2023/09/02 06:03:11;;;;;;;;;;;21.20;53.50;;;;;;4995131;28;87187;-50
2023/09/02 06:05:36;;;;;;;;;;;21.20;53.50;;;;;;4993725;28;87500;-51
2023/09/02 06:08:02;;;;;;;;;;;21.20;53.50;;;;;;4990573;28;88202;-51
2023/09/02 06:10:28;;;;;;;;;;;21.20;53.50;;;;;;4995881;28;87132;-52
2023/09/02 06:12:53;;;;;;;;;;;21.20;53.50;;;;;;4991589;28;88834;-51
2023/09/02 06:15:18;;;;;;;;;;;21.20;53.60;;;;;;4996219;28;86382;-52
2023/09/02 06:17:44;;;;;;;;;;;21.20;53.50;;;;;;4992802;28;86998;-49
2023/09/02 06:20:10;;;;;;;;;;;21.20;53.50;;;;;;4995941;28;88471;-52
2023/09/02 06:22:35;;;;;;;;;;;21.20;53.60;;;;;;4987057;28;89867;-51
2023/09/02 06:25:01;;;;;;;;;;;21.20;53.60;;;;;;4990808;28;88945;-52
2023/09/02 06:27:26;;;;;;;;;;;21.20;53.60;;;;;;4990708;28;89622;-52
2023/09/02 06:29:52;;;;;;;;;;;21.20;53.70;;;;;;4994862;28;87138;-50
2023/09/02 06:32:17;;;;;;;;;;;21.20;53.60;;;;;;4996828;28;87574;-49
2023/09/02 06:34:43;;;;;;;;;;;21.20;53.70;;;;;;4996769;28;87253;-51
2023/09/02 06:37:09;;;;;;;;;;;21.20;53.70;;;;;;4992402;28;87603;-53
2023/09/02 06:39:34;;;;;;;;;;;21.20;53.60;;;;;;4994317;28;88280;-54
2023/09/02 06:42:00;;;;;;;;;;;21.20;53.70;;;;;;4989096;28;87209;-52
2023/09/02 06:44:25;;;;;;;;;;;21.20;53.70;;;;;;4988460;28;87559;-50
2023/09/02 06:46:51;;;;;;;;;;;21.10;53.70;;;;;;4992449;28;89144;-52
2023/09/02 06:49:16;;;;;;;;;;;21.20;53.80;;;;;;4990103;28;87151;-53
2023/09/02 06:51:42;;;;;;;;;;;21.20;53.70;;;;;;4995579;28;87897;-49
2023/09/02 06:54:07;;;;;;;;;;;21.20;53.70;;;;;;4997147;28;87905;-52
2023/09/02 06:56:33;;;;;;;;;;;21.20;53.80;;;;;;4989214;28;87870;-54
2023/09/02 06:58:58;;;;;;;;;;;21.20;53.80;;;;;;4995258;28;88042;-53
2023/09/02 07:01:24;;;;;;;;;;;21.20;53.70;;;;;;4991341;28;87204;-51
2023/09/02 07:03:50;;;;;;;;;;;21.20;53.80;;;;;;4996818;28;86897;-51
2023/09/02 07:06:16;;;;;;;;;;;21.20;53.80;;;;;;4999148;28;89456;-52
2023/09/02 07:08:41;;;;;;;;;;;21.20;53.90;;;;;;4989186;28;88938;-51
2023/09/02 07:11:09;;;;;;;;;;;21.20;53.80;;;;;;4990279;28;89296;-49
2023/09/02 07:13:38;;;;;;;;;;;21.20;53.90;;;;;;4989560;28;88152;-52
2023/09/02 07:16:04;;;;;;;;;;;21.20;53.90;;;;;;4997693;28;87098;-53
2023/09/02 07:18:30;;;;;;;;;;;21.20;53.80;;;;;;4984864;28;88762;-48
2023/09/02 07:21:03;;;;;;;;;;;21.20;53.80;;;;;;4988377;28;87348;-50
2023/09/02 07:23:29;;;;;;;;;;;21.20;53.80;;;;;;4991655;28;87715;-51
2023/09/02 07:25:56;;;;;;;;;;;21.20;53.70;;;;;;4994602;28;88156;-52
2023/09/02 07:28:22;;;;;;;;;;;21.20;53.80;;;;;;4992117;28;87133;-52
2023/09/02 07:30:47;;;;;;;;;;;21.20;53.90;;;;;;4987473;28;88991;-50
2023/09/02 07:33:13;;;;;;;;;;;21.20;53.80;;;;;;4989418;28;88162;-51
2023/09/02 07:35:39;;;;;;;;;;;21.20;53.90;;;;;;4991830;28;88165;-54
2023/09/02 07:38:05;;;;;;;;;;;21.20;53.90;;;;;;4992667;28;88959;-51
2023/09/02 07:40:31;;;;;;;;;;;21.20;54.00;;;;;;4992886;28;87197;-51
2023/09/02 07:42:58;;;;;;;;;;;21.20;54.00;;;;;;4990082;28;87931;-48
2023/09/02 07:45:24;;;;;;;;;;;21.20;54.00;;;;;;4993579;28;88157;-51
2023/09/02 07:47:49;;;;;;;;;;;21.20;54.00;;;;;;4994804;28;87700;-50
2023/09/02 07:50:15;;;;;;;;;;;21.20;54.00;;;;;;4993449;28;87474;-48
2023/09/02 07:52:41;;;;;;;;;;;21.20;54.00;;;;;;4993460;28;87487;-50
2023/09/02 07:55:07;;;;;;;;;;;21.20;54.00;;;;;;4990242;28;87695;-52
2023/09/02 07:57:32;;;;;;;;;;;21.20;54.00;;;;;;4987330;28;88047;-51
2023/09/02 07:59:58;;;;;;;;;;;21.20;54.00;;;;;;4997280;28;89649;-49
2023/09/02 08:02:23;;;;;;;;;;;21.20;54.00;;;;;;4996851;28;87792;-53
2023/09/02 08:04:49;;;;;;;;;;;21.20;54.00;;;;;;4991020;28;88116;-54
2023/09/02 08:07:14;;;;;;;;;;;21.20;54.00;;;;;;4993810;28;87506;-54
2023/09/02 08:09:40;;;;;;;;;;;21.20;54.00;;;;;;4994265;28;87756;-53
2023/09/02 08:12:06;;;;;;;;;;;21.20;54.00;;;;;;4997718;28;87983;-52
2023/09/02 08:14:31;;;;;;;;;;;21.20;54.10;;;;;;4992774;28;87539;-52
2023/09/02 08:16:57;;;;;;;;;;;21.20;54.10;;;;;;4992661;28;87879;-51
2023/09/02 08:19:23;;;;;;;;;;;21.20;54.20;;;;;;4995894;28;88497;-52
2023/09/02 08:21:48;;;;;;;;;;;21.20;54.00;;;;;;4998239;28;88769;-51
2023/09/02 08:24:14;;;;;;;;;;;21.20;54.10;;;;;;4993247;28;89152;-48
2023/09/02 08:26:40;;;;;;;;;;;21.20;54.00;;;;;;4997052;28;87729;-52
2023/09/02 08:29:06;;;;;;;;;;;21.20;53.90;;;;;;4996960;28;87960;-54
2023/09/02 08:31:31;;;;;;;;;;;21.20;54.00;;;;;;4989597;28;88563;-51
2023/09/02 08:33:57;;;;;;;;;;;21.20;53.90;;;;;;4989498;28;88537;-52
2023/09/02 08:36:23;;;;;;;;;;;21.30;54.00;;;;;;5009842;28;88448;-50
2023/09/02 08:38:48;;;;;;;;;;;21.20;53.90;;;;;;4995025;28;89479;-53
2023/09/02 08:41:23;;;;;;;;;;;21.20;53.90;;;;;;4999529;28;86419;-51
2023/09/02 08:43:52;;;;;;;;;;;21.30;53.90;;;;;;4992561;28;88106;-51
2023/09/02 08:46:19;;;;;;;;;;;21.30;53.90;;;;;;4993890;28;87181;-48
2023/09/02 08:48:44;;;;;;;;;;;21.30;53.70;;;;;;4990292;28;88191;-48
2023/09/02 08:51:11;;;;;;;;;;;21.30;54.00;;;;;;4993703;28;88203;-54
2023/09/02 08:53:37;;;;;;;;;;;21.30;53.60;;;;;;4991365;28;87086;-53
2023/09/02 08:56:04;;;;;;;;;;;21.30;53.70;;;;;;4995566;28;87135;-53
2023/09/02 08:58:29;;;;;;;;;;;21.30;53.70;;;;;;4996124;28;88241;-48
2023/09/02 09:00:55;;;;;;;;;;;21.30;53.70;;;;;;4994203;28;88974;-49
2023/09/02 09:03:21;;;;;;;;;;;21.30;53.80;;;;;;4994272;28;87751;-54
2023/09/02 09:05:48;;;;;;;;;;;21.30;53.70;;;;;;4995417;28;86461;-48
2023/09/02 09:08:15;;;;;;;;;;;21.30;53.60;;;;;;4989799;28;87150;-50
2023/09/02 09:10:41;;;;;;;;;;;21.30;53.60;;;;;;4991660;28;89260;-56
2023/09/02 09:13:08;;;;;;;;;;;21.30;53.60;;;;;;4994720;28;88067;-50
2023/09/02 09:15:35;;;;;;;;;;;21.30;53.60;;;;;;4993551;28;88618;-52
2023/09/02 09:18:01;;;;;;;;;;;21.40;53.70;;;;;;4988718;28;87779;-51
2023/09/02 09:20:27;;;;;;;;;;;21.40;53.50;;;;;;4993085;28;87039;-52
2023/09/02 09:22:52;;;;;;;;;;;21.40;53.60;;;;;;4994761;28;88086;-51
2023/09/02 09:25:19;;;;;;;;;;;21.40;53.60;;;;;;4995793;28;87338;-53
2023/09/02 09:27:45;;;;;;;;;;;21.40;53.50;;;;;;4992389;28;88071;-50
2023/09/02 09:30:26;;;;;;;;;;;21.40;53.50;;;;;;4998526;28;87480;-50
2023/09/02 09:33:00;;;;;;;;;;;21.40;53.50;;;;;;4994815;28;87183;-51
2023/09/02 09:35:26;;;;;;;;;;;21.40;53.60;;;;;;4993110;28;87367;-51
2023/09/02 09:37:52;;;;;;;;;;;21.40;53.50;;;;;;4992974;28;88783;-52
2023/09/02 09:40:27;;;;;;;;;;;21.40;53.60;;;;;;4991805;28;88841;-52
2023/09/02 09:42:52;;;;;;;;;;;21.40;53.60;;;;;;4993242;28;87713;-51
2023/09/02 09:45:18;;;;;;;;;;;21.50;53.60;;;;;;4992615;28;88236;-51
2023/09/02 09:47:45;;;;;;;;;;;21.50;53.60;;;;;;4992684;28;87465;-51
2023/09/02 09:50:12;;;;;;;;;;;21.50;53.50;;;;;;4990643;28;88160;-48
2023/09/02 09:52:37;;;;;;;;;;;21.50;53.50;;;;;;4994220;28;87188;-50
2023/09/02 09:55:03;;;;;;;;;;;21.50;53.60;;;;;;4996786;28;86792;-53
2023/09/02 09:57:29;;;;;;;;;;;21.50;53.50;;;;;;4983978;28;88105;-56
2023/09/02 09:59:54;;;;;;;;;;;21.60;53.60;;;;;;4992376;28;87174;-51
2023/09/02 10:02:21;;;;;;;;;;;21.60;53.60;;;;;;4992884;28;88156;-48
2023/09/02 10:04:50;;;;;;;;;;;21.60;53.60;;;;;;4987826;28;88685;-50
2023/09/02 10:07:19;;;;;;;;;;;21.60;53.50;;;;;;4989707;28;87090;-52
2023/09/02 10:09:45;;;;;;;;;;;21.60;53.50;;;;;;4994685;28;87721;-49
2023/09/02 10:12:11;;;;;;;;;;;21.60;53.50;;;;;;4993941;28;87633;-52
2023/09/02 10:14:40;;;;;;;;;;;21.60;53.50;;;;;;4992412;28;88744;-52
2023/09/02 10:17:06;;;;;;;;;;;21.70;53.50;;;;;;4991102;28;88501;-47
2023/09/02 10:19:32;;;;;;;;;;;21.60;53.50;;;;;;4993203;28;86254;-50
2023/09/02 10:21:58;;;;;;;;;;;21.70;53.60;;;;;;4991122;28;88668;-52
2023/09/02 10:24:24;;;;;;;;;;;21.70;53.60;;;;;;4988601;28;87918;-50
2023/09/02 10:26:53;;;;;;;;;;;21.70;53.50;;;;;;4991685;28;89155;-49
2023/09/02 10:29:21;;;;;;;;;;;21.80;53.60;;;;;;4997610;28;88766;-50
2023/09/02 10:31:51;;;;;;;;;;;21.70;53.50;;;;;;4995995;28;88292;-48
2023/09/02 10:34:19;;;;;;;;;;;21.80;53.60;;;;;;4989584;28;88838;-50
2023/09/02 10:36:47;;;;;;;;;;;21.80;53.50;;;;;;4991393;28;88338;-49
2023/09/02 10:39:18;;;;;;;;;;;21.80;53.70;;;;;;4994679;28;87173;-55
2023/09/02 10:41:44;;;;;;;;;;;21.80;53.50;;;;;;4988918;28;88909;-49
2023/09/02 10:44:10;;;;;;;;;;;21.90;53.60;;;;;;4992478;28;88023;-52
2023/09/02 10:46:37;;;;;;;;;;;21.90;53.60;;;;;;4994065;28;87163;-52
2023/09/02 10:49:03;;;;;;;;;;;21.90;53.70;;;;;;4986347;28;87507;-51
2023/09/02 10:51:28;;;;;;;;;;;21.90;53.60;;;;;;4998081;28;89126;-55
2023/09/02 10:53:54;;;;;;;;;;;22.00;53.70;;;;;;4991263;28;89157;-52
2023/09/02 10:56:26;;;;;;;;;;;22.00;53.90;;;;;;4991951;28;88239;-52
2023/09/02 10:58:51;;;;;;;;;;;22.00;53.80;;;;;;4990899;28;87166;-50
2023/09/02 11:01:17;;;;;;;;;;;22.00;53.70;;;;;;4987852;28;87903;-51
2023/09/02 11:03:44;;;;;;;;;;;22.00;53.70;;;;;;4991712;28;87077;-52
2023/09/02 11:06:12;;;;;;;;;;;22.00;53.80;;;;;;4994530;28;87549;-52
2023/09/02 11:08:43;;;;;;;;;;;22.00;53.80;;;;;;4990739;28;89059;-52
2023/09/02 11:11:09;;;;;;;;;;;22.00;53.80;;;;;;4988633;28;91536;-53
2023/09/02 11:13:54;;;;;;;;;;;22.10;53.80;;;;;;4994272;28;87169;-51
2023/09/02 11:16:20;;;;;;;;;;;22.10;53.70;;;;;;4992600;28;89215;-53
2023/09/02 11:18:45;;;;;;;;;;;22.10;53.60;;;;;;4988569;28;87127;-50
2023/09/02 11:21:31;;;;;;;;;;;22.10;53.60;;;;;;4989698;28;87607;-48
2023/09/02 11:24:12;;;;;;;;;;;22.10;53.60;;;;;;4990657;28;88306;-51
2023/09/02 11:26:48;;;;;;;;;;;22.20;53.50;;;;;;4993294;28;88971;-53
2023/09/02 11:29:21;;;;;;;;;;;22.20;53.60;;;;;;4989231;28;87558;-51
2023/09/02 11:32:00;;;;;;;;;;;22.20;53.70;;;;;;4993119;28;89072;-51
2023/09/02 11:34:26;;;;;;;;;;;22.20;53.60;;;;;;4991559;28;86437;-51
2023/09/02 11:36:56;;;;;;;;;;;22.20;53.70;;;;;;4989592;28;88898;-51
2023/09/02 11:39:25;;;;;;;;;;;22.30;53.70;;;;;;4989144;28;87028;-49
2023/09/02 11:42:10;;;;;;;;;;;22.30;53.60;;;;;;4990781;28;88099;-53
2023/09/02 11:44:35;;;;;;;;;;;22.30;53.60;;;;;;4994493;28;88320;-53
2023/09/02 11:47:01;;;;;;;;;;;22.30;53.60;;;;;;4992048;28;87152;-52
2023/09/02 11:49:27;;;;;;;;;;;22.40;53.70;;;;;;4989710;28;87123;-54
2023/09/02 11:51:52;;;;;;;;;;;22.40;53.60;;;;;;4994789;28;87652;-49
2023/09/02 11:54:18;;;;;;;;;;;22.40;53.70;;;;;;4989355;28;87174;-50
2023/09/02 11:57:00;;;;;;;;;;;22.40;53.60;;;;;;4986503;28;87653;-53
2023/09/02 11:59:26;;;;;;;;;;;22.50;53.60;;;;;;4994495;28;89163;-52
2023/09/02 12:02:12;;;;;;;;;;;22.50;53.60;;;;;;4995593;28;87203;-54
2023/09/02 12:04:38;;;;;;;;;;;22.50;53.70;;;;;;4995892;28;91511;-50
2023/09/02 12:07:05;;;;;;;;;;;22.50;53.60;;;;;;4989942;28;88166;-53
2023/09/02 12:09:30;;;;;;;;;;;22.50;53.60;;;;;;4990002;28;88664;-52
2023/09/02 12:11:57;;;;;;;;;;;22.50;53.50;;;;;;4987458;28;88508;-53
2023/09/02 12:14:22;;;;;;;;;;;22.60;53.60;;;;;;4993693;28;88980;-53
2023/09/02 12:16:48;;;;;;;;;;;22.60;53.60;;;;;;4989059;28;86973;-52
2023/09/02 12:19:13;;;;;;;;;;;22.60;53.60;;;;;;4992835;28;87498;-52
2023/09/02 12:21:40;;;;;;;;;;;22.60;53.60;;;;;;4996071;28;87189;-54
2023/09/02 12:24:05;;;;;;;;;;;22.60;53.50;;;;;;4989792;28;87013;-53
2023/09/02 12:26:31;;;;;;;;;;;22.60;53.50;;;;;;4991729;28;87099;-51
2023/09/02 12:28:56;;;;;;;;;;;22.70;53.50;;;;;;4992805;28;87767;-51
2023/09/02 12:31:22;;;;;;;;;;;22.70;53.40;;;;;;4987999;28;90074;-54
2023/09/02 12:33:49;;;;;;;;;;;22.70;53.40;;;;;;4987287;28;87665;-54
2023/09/02 12:36:14;;;;;;;;;;;22.70;53.40;;;;;;4992775;28;87634;-49
2023/09/02 12:38:50;;;;;;;;;;;22.80;53.40;;;;;;4990519;28;88365;-49
2023/09/02 12:41:15;;;;;;;;;;;22.80;53.50;;;;;;4995312;28;87187;-53
2023/09/02 12:43:41;;;;;;;;;;;22.80;53.40;;;;;;4988886;28;88194;-50
2023/09/02 12:46:06;;;;;;;;;;;22.80;53.50;;;;;;4994481;28;87153;-52
2023/09/02 12:48:32;;;;;;;;;;;22.80;53.30;;;;;;4992283;28;87735;-53
2023/09/02 12:50:58;;;;;;;;;;;22.90;53.30;;;;;;4992228;28;89557;-52
2023/09/02 12:53:26;;;;;;;;;;;22.90;53.30;;;;;;4992063;28;87236;-49
2023/09/02 12:55:52;;;;;;;;;;;22.90;53.30;;;;;;4996396;28;88010;-52
2023/09/02 12:58:17;;;;;;;;;;;22.90;53.30;;;;;;4991856;28;88217;-52
2023/09/02 13:00:43;;;;;;;;;;;22.90;53.20;;;;;;4991257;28;87292;-52
2023/09/02 13:03:08;;;;;;;;;;;23.00;53.20;;;;;;4998054;28;87493;-53
2023/09/02 13:05:34;;;;;;;;;;;23.00;53.10;;;;;;4994361;28;87095;-53
2023/09/02 13:08:00;;;;;;;;;;;23.00;53.10;;;;;;4995450;28;87858;-50
2023/09/02 13:10:25;;;;;;;;;;;23.00;53.00;;;;;;4994443;28;89281;-50
2023/09/02 13:12:51;;;;;;;;;;;23.00;53.00;;;;;;4995156;28;86253;-49
2023/09/02 13:15:16;;;;;;;;;;;23.10;52.90;;;;;;4997495;28;87324;-51
2023/09/02 13:17:42;;;;;;;;;;;23.10;52.90;;;;;;4994168;28;88176;-53
2023/09/02 13:20:12;;;;;;;;;;;23.10;52.90;;;;;;4990205;28;88203;-48
2023/09/02 13:22:40;;;;;;;;;;;23.10;52.80;;;;;;4994904;28;89841;-51
2023/09/02 13:25:05;;;;;;;;;;;23.10;52.70;;;;;;4995819;28;88047;-50
2023/09/02 13:27:31;;;;;;;;;;;23.10;52.60;;;;;;4992309;28;88932;-51
2023/09/02 13:29:56;;;;;;;;;;;23.20;52.50;;;;;;4988125;28;87506;-53
2023/09/02 13:32:23;;;;;;;;;;;23.20;52.50;;;;;;4997426;28;87374;-54
2023/09/02 13:34:49;;;;;;;;;;;23.20;52.40;;;;;;4991665;28;88841;-51
2023/09/02 13:37:25;;;;;;;;;;;23.30;52.50;;;;;;4992841;28;87306;-49
2023/09/02 13:40:00;;;;;;;;;;;23.30;53.00;;;;;;4994686;28;87204;-51
2023/09/02 13:42:26;;;;;;;;;;;23.30;52.90;;;;;;4993627;28;88547;-53
2023/09/02 13:44:55;;;;;;;;;;;23.40;52.20;;;;;;4990679;28;89075;-53
2023/09/02 13:47:21;;;;;;;;;;;23.40;52.20;;;;;;4994402;28;87231;-53
2023/09/02 13:49:53;;;;;;;;;;;23.40;52.10;;;;;;4992995;28;87077;-52
2023/09/02 13:52:23;;;;;;;;;;;23.40;51.90;;;;;;4992857;28;88146;-52
2023/09/02 13:54:49;;;;;;;;;;;23.40;51.90;;;;;;4992912;28;89233;-52
2023/09/02 13:57:15;;;;;;;;;;;23.50;51.90;;;;;;4993938;28;90063;-49
2023/09/02 13:59:41;;;;;;;;;;;23.50;51.80;;;;;;4996449;28;87159;-52
2023/09/02 14:02:08;;;;;;;;;;;23.50;51.90;;;;;;4987442;28;88965;-52
2023/09/02 14:04:36;;;;;;;;;;;23.50;51.70;;;;;;4994842;28;88404;-50
2023/09/02 14:07:02;;;;;;;;;;;23.50;51.60;;;;;;4993364;28;87040;-51
2023/09/02 14:09:27;;;;;;;;;;;23.50;51.70;;;;;;5002465;28;88211;-52
2023/09/02 14:11:55;;;;;;;;;;;23.50;51.60;;;;;;4993900;28;88790;-52
2023/09/02 14:14:21;;;;;;;;;;;23.60;51.50;;;;;;4994529;28;87214;-54